C. Angelo — WCZ5866 — position and weather

sailwx.info

Track history (hours):
 
Tides and Currents Weather Stations Pressure Air Temp Water Temp Dewpoint Dewpoint Depression Visibility Wind Speed Wind Dir Waves Ship Positions

C. Angelo

More information available from US FCC via Universal Licensing System and Coast Guard Vessel Documentation Center.

Last reported at 2014-Sep-02 01:32 UTC. Time now 2014-Sep-02 02:13 UTC.
Position N 41°35' W 071°18'.

Length 30 m; draft 4.1 m.

Type: Tug. MMSI: 366988420.

Date/timePositionNaut miles runAvg speedWind from/ knotsBaromVisibWave heightAir tempDewpointWater temp
2014-Sep-02 01:32N 41°35' W 071°18'4 4.3
2014-Sep-02 00:33N 41°31' W 071°21'3 3.4
2014-Sep-01 23:33N 41°28' W 071°22'6 6.3
2014-Sep-01 22:33N 41°22' W 071°26'6 6.3
2014-Sep-01 21:33N 41°17' W 071°31'7 6.6
2014-Sep-01 20:33N 41°15' W 071°39'6 6.5
2014-Sep-01 19:33N 41°09' W 071°42'7 7.1
2014-Sep-01 18:33N 41°02' W 071°45'7 6.9
2014-Sep-01 17:33N 40°59' W 071°54'7 6.9
2014-Sep-01 16:33N 40°57' W 072°02'7 6.7
2014-Sep-01 15:33N 40°54' W 072°10'7 6.6
2014-Sep-01 14:33N 40°51' W 072°18'7 6.6
2014-Sep-01 13:33N 40°49' W 072°26'6 6.2
2014-Sep-01 12:33N 40°46' W 072°34'6 6.5
2014-Sep-01 11:33N 40°44' W 072°42'7 6.5
2014-Sep-01 10:33N 40°41' W 072°50'7 6.7
2014-Sep-01 09:33N 40°39' W 072°58'7 6.8
2014-Sep-01 08:33N 40°36' W 073°06'7 6.7
2014-Sep-01 07:33N 40°33' W 073°14'6 6.3
2014-Sep-01 06:33N 40°29' W 073°20'6 6.1
2014-Sep-01 05:32N 40°23' W 073°24'6 6.3
2014-Sep-01 04:33N 40°18' W 073°29'7 6.4
2014-Sep-01 03:30N 40°13' W 073°34'7 6.5
2014-Sep-01 02:30N 40°07' W 073°39'9 6.6
2014-Sep-01 01:10N 40°00' W 073°45'4 6.7
2014-Sep-01 00:33N 39°57' W 073°48'7 6.7
2014-Aug-31 23:33N 39°52' W 073°54'7 7.0
2014-Aug-31 22:33N 39°45' W 073°58'7 7.2
2014-Aug-31 21:31N 39°39' W 074°02'7 7.1
2014-Aug-31 20:33N 39°32' W 074°06'8 7.3
2014-Aug-31 19:27N 39°25' W 074°10'7 7.2
2014-Aug-31 18:30N 39°19' W 074°14'7 7.1
2014-Aug-31 17:33N 39°13' W 074°19'7 7.2
2014-Aug-31 16:32N 39°07' W 074°23'7 7.3
2014-Aug-31 15:33N 39°00' W 074°27'7 7.0
2014-Aug-31 14:30N 38°54' W 074°32'271 6.4
2014-Aug-29 20:19N 34°33' W 076°03'6 7.5
2014-Aug-29 19:33N 34°29' W 076°07'7 7.1
2014-Aug-29 18:33N 34°23' W 076°13'14 6.9
2014-Aug-29 16:33N 34°14' W 076°25'7 7.2
2014-Aug-29 15:32N 34°09' W 076°32'7 7.0
2014-Aug-29 14:29N 34°05' W 076°39'7 7.0
2014-Aug-29 13:33N 34°01' W 076°45'8 6.9
2014-Aug-29 12:21N 33°55' W 076°53'6 6.9
2014-Aug-29 11:32N 33°51' W 076°58'14 6.9
2014-Aug-29 09:30N 33°42' W 077°11'  
Track history (hours):
 
Tides and Currents Weather Stations Pressure Air Temp Water Temp Dewpoint Dewpoint Depression Visibility Wind Speed Wind Dir Waves Ship Positions

C. Angelo

More information available from US FCC via Universal Licensing System and Coast Guard Vessel Documentation Center.

Last reported at 2014-Sep-02 01:32 UTC. Time now 2014-Sep-02 02:13 UTC.
Position N 41°35' W 071°18'.

Length 30 m; draft 4.1 m.

Type: Tug. MMSI: 366988420.

Date/timePositionNaut miles runAvg speedWind from/ knotsBaromVisibWave heightAir tempDewpointWater temp
2014-Sep-02 01:32N 41°35' W 071°18'4 4.3
2014-Sep-02 00:33N 41°31' W 071°21'3 3.4
2014-Sep-01 23:33N 41°28' W 071°22'6 6.3
2014-Sep-01 22:33N 41°22' W 071°26'6 6.3
2014-Sep-01 21:33N 41°17' W 071°31'7 6.6
2014-Sep-01 20:33N 41°15' W 071°39'6 6.5
2014-Sep-01 19:33N 41°09' W 071°42'7 7.1
2014-Sep-01 18:33N 41°02' W 071°45'7 6.9
2014-Sep-01 17:33N 40°59' W 071°54'7 6.9
2014-Sep-01 16:33N 40°57' W 072°02'7 6.7
2014-Sep-01 15:33N 40°54' W 072°10'7 6.6
2014-Sep-01 14:33N 40°51' W 072°18'7 6.6
2014-Sep-01 13:33N 40°49' W 072°26'6 6.2
2014-Sep-01 12:33N 40°46' W 072°34'6 6.5
2014-Sep-01 11:33N 40°44' W 072°42'7 6.5
2014-Sep-01 10:33N 40°41' W 072°50'7 6.7
2014-Sep-01 09:33N 40°39' W 072°58'7 6.8
2014-Sep-01 08:33N 40°36' W 073°06'7 6.7
2014-Sep-01 07:33N 40°33' W 073°14'6 6.3
2014-Sep-01 06:33N 40°29' W 073°20'6 6.1
2014-Sep-01 05:32N 40°23' W 073°24'6 6.3
2014-Sep-01 04:33N 40°18' W 073°29'7 6.4
2014-Sep-01 03:30N 40°13' W 073°34'7 6.5
2014-Sep-01 02:30N 40°07' W 073°39'9 6.6
2014-Sep-01 01:10N 40°00' W 073°45'4 6.7
2014-Sep-01 00:33N 39°57' W 073°48'7 6.7
2014-Aug-31 23:33N 39°52' W 073°54'7 7.0
2014-Aug-31 22:33N 39°45' W 073°58'7 7.2
2014-Aug-31 21:31N 39°39' W 074°02'7 7.1
2014-Aug-31 20:33N 39°32' W 074°06'8 7.3
2014-Aug-31 19:27N 39°25' W 074°10'7 7.2
2014-Aug-31 18:30N 39°19' W 074°14'7 7.1
2014-Aug-31 17:33N 39°13' W 074°19'7 7.2
2014-Aug-31 16:32N 39°07' W 074°23'7 7.3
2014-Aug-31 15:33N 39°00' W 074°27'7 7.0
2014-Aug-31 14:30N 38°54' W 074°32'271 6.4
2014-Aug-29 20:19N 34°33' W 076°03'6 7.5
2014-Aug-29 19:33N 34°29' W 076°07'7 7.1
2014-Aug-29 18:33N 34°23' W 076°13'14 6.9
2014-Aug-29 16:33N 34°14' W 076°25'7 7.2
2014-Aug-29 15:32N 34°09' W 076°32'7 7.0
2014-Aug-29 14:29N 34°05' W 076°39'7 7.0
2014-Aug-29 13:33N 34°01' W 076°45'8 6.9
2014-Aug-29 12:21N 33°55' W 076°53'6 6.9
2014-Aug-29 11:32N 33°51' W 076°58'14 6.9
2014-Aug-29 09:30N 33°42' W 077°11'  

Dump ship's entire track history